Time;durP1;ratioP1;P1;durP2;ratioP2;P2;SDS_P1;SDS_P2;PMS_P1;PMS_P2;Temp;Humidity;BMP_temperature;BMP_pressure;BME280_temperature;BME280_humidity;BME280_pressure;Samples;Min_cycle;Max_cycle;Signal;HPM_P1;HPM_P2
2021/05/31 00:01:06;;;;;;;7.23;4.77;;;;;;;20.52;64.58;100840.50;146705;583;46016;-88
2021/05/31 00:03:36;;;;;;;10.15;5.22;;;;;;;20.56;65.00;100831.34;146708;571;47008;-88
2021/05/31 00:06:07;;;;;;;7.78;5.45;;;;;;;20.52;64.74;100830.69;146708;663;46016;-85
2021/05/31 00:08:37;;;;;;;11.55;5.30;;;;;;;20.53;65.16;100834.19;146708;619;46020;-84
2021/05/31 00:11:08;;;;;;;7.65;5.15;;;;;;;20.56;65.62;100839.34;146707;578;46016;-87
2021/05/31 00:13:38;;;;;;;6.53;4.70;;;;;;;20.51;65.83;100852.12;146702;600;46020;-85
2021/05/31 00:16:09;;;;;;;10.95;5.10;;;;;;;20.37;65.59;100856.56;146707;592;46905;-83
2021/05/31 00:18:39;;;;;;;7.53;4.95;;;;;;;20.26;67.48;100864.44;146707;591;46020;-84
2021/05/31 00:21:10;;;;;;;10.52;4.57;;;;;;;20.17;66.46;100863.22;146707;566;46016;-82
2021/05/31 00:23:41;;;;;;;7.47;4.57;;;;;;;20.20;66.07;100859.50;146702;671;46020;-85
2021/05/31 00:26:15;;;;;;;6.68;4.47;;;;;;;20.25;65.85;100844.06;146705;729;46016;-80
2021/05/31 00:28:46;;;;;;;10.88;4.72;;;;;;;20.24;66.04;100834.34;146709;585;46020;-76
2021/05/31 00:31:17;;;;;;;5.60;3.97;;;;;;;20.41;66.53;100852.72;146707;656;46011;-75
2021/05/31 00:33:48;;;;;;;9.03;4.33;;;;;;;20.41;66.54;100849.22;146706;610;46021;-76
2021/05/31 00:36:18;;;;;;;26.27;5.47;;;;;;;20.38;66.41;100844.94;146706;609;46010;-76
2021/05/31 00:38:49;;;;;;;24.05;5.28;;;;;;;20.33;66.27;100841.72;146701;564;46021;-79
2021/05/31 00:41:21;;;;;;;16.50;4.87;;;;;;;20.31;66.61;100846.28;146704;600;47904;-78
2021/05/31 00:43:52;;;;;;;18.62;4.47;;;;;;;20.27;66.58;100837.66;146707;569;46020;-77
2021/05/31 00:46:25;;;;;;;14.82;4.10;;;;;;;20.22;66.87;100836.28;146703;658;47020;-77
2021/05/31 00:48:56;;;;;;;17.33;5.03;;;;;;;20.21;67.12;100835.41;146708;594;46008;-76
2021/05/31 00:51:28;;;;;;;18.50;5.87;;;;;;;20.14;67.26;100836.78;146704;652;46016;-78
2021/05/31 00:53:59;;;;;;;12.82;5.70;;;;;;;20.12;67.30;100844.88;146706;668;46021;-77
2021/05/31 00:56:30;;;;;;;13.15;5.57;;;;;;;20.08;67.54;100840.69;146709;633;47019;-78
2021/05/31 00:59:00;;;;;;;12.33;5.70;;;;;;;20.05;67.86;100840.91;146706;639;46020;-77
2021/05/31 01:01:31;;;;;;;13.23;6.43;;;;;;;20.11;67.85;100840.50;146705;564;47905;-77
2021/05/31 01:04:01;;;;;;;18.83;6.30;;;;;;;20.07;67.81;100828.31;146701;601;46020;-77
2021/05/31 01:06:36;;;;;;;8.77;6.20;;;;;;;20.03;68.41;100826.81;146701;692;47018;-75
2021/05/31 01:09:28;;;;;;;10.48;5.50;;;;;;;20.00;67.92;100820.81;146706;573;46020;-77
2021/05/31 01:12:32;;;;;;;14.20;6.82;;;;;;;20.05;67.86;100834.72;146704;772;46016;-76
2021/05/31 01:15:39;;;;;;;12.93;6.37;;;;;;;20.08;67.80;100830.03;146707;649;46020;-72
2021/05/31 01:18:34;;;;;;;21.77;6.85;;;;;;;20.15;67.42;100830.50;146704;592;47017;-78
2021/05/31 01:22:01;;;;;;;14.45;6.40;;;;;;;20.20;67.34;100832.84;146706;604;46028;-79
2021/05/31 01:25:45;;;;;;;13.88;6.97;;;;;;;20.23;67.66;100824.63;146704;603;46017;-74
2021/05/31 01:28:55;;;;;;;14.80;7.18;;;;;;;20.24;67.41;100818.34;146708;577;46029;-74
2021/05/31 01:31:57;;;;;;;13.52;6.22;;;;;;;20.26;67.06;100809.28;146709;587;45905;-75
2021/05/31 01:34:33;;;;;;;15.02;7.45;;;;;;;20.25;66.93;100820.06;146701;583;46910;-77
2021/05/31 01:37:16;;;;;;;13.48;7.12;;;;;;;20.28;67.38;100817.19;146705;590;46016;-74
2021/05/31 01:39:51;;;;;;;10.85;7.00;;;;;;;20.24;67.55;100810.34;146710;656;46021;-75
2021/05/31 01:42:25;;;;;;;10.48;7.28;;;;;;;20.16;67.70;100805.56;146706;623;46018;-76
2021/05/31 01:44:56;;;;;;;8.15;6.62;;;;;;;20.12;67.91;100810.22;146708;599;46010;-79
2021/05/31 01:47:27;;;;;;;16.48;7.15;;;;;;;20.06;68.04;100807.94;146709;657;46016;-81
2021/05/31 01:49:58;;;;;;;9.20;6.60;;;;;;;19.99;68.10;100800.47;146712;569;46008;-79
2021/05/31 01:52:59;;;;;;;9.68;7.10;;;;;;;19.93;68.15;100805.25;146703;566;46015;-78
2021/05/31 01:55:30;;;;;;;9.85;7.18;;;;;;;19.93;68.19;100799.09;146707;606;46020;-79
2021/05/31 01:58:02;;;;;;;9.30;6.80;;;;;;;19.89;68.58;100800.25;146705;585;47010;-85
2021/05/31 02:00:33;;;;;;;10.35;7.22;;;;;;;19.89;68.56;100794.91;146704;572;46020;-82
2021/05/31 02:03:04;;;;;;;7.90;6.87;;;;;;;19.82;68.75;100786.47;146706;608;46017;-83
2021/05/31 02:05:34;;;;;;;9.32;6.87;;;;;;;19.79;68.76;100789.28;146712;679;46008;-85
2021/05/31 02:08:06;;;;;;;8.18;7.00;;;;;;;19.79;68.50;100787.47;146704;599;46016;-80
2021/05/31 02:10:36;;;;;;;11.60;7.18;;;;;;;19.80;68.86;100793.69;146706;596;46020;-82
2021/05/31 02:13:09;;;;;;;8.90;6.67;;;;;;;19.79;68.76;100781.28;146711;583;46016;-93
2021/05/31 02:16:11;;;;;;;9.75;6.90;;;;;;;19.61;68.41;100748.72;146713;608;46008;-79
2021/05/31 02:18:50;;;;;;;9.20;6.78;;;;;;;19.84;68.30;100784.53;146704;563;46016;-76
2021/05/31 02:21:22;;;;;;;9.05;6.78;;;;;;;19.88;68.16;100783.38;146704;611;46020;-79
2021/05/31 02:23:54;;;;;;;10.07;6.68;;;;;;;19.91;68.14;100792.97;146707;564;46010;-78
2021/05/31 02:26:25;;;;;;;11.77;7.07;;;;;;;19.90;67.96;100791.25;146699;603;46020;-78
2021/05/31 02:28:57;;;;;;;10.70;6.93;;;;;;;19.93;67.65;100788.41;146704;614;46016;-78
2021/05/31 02:31:28;;;;;;;8.15;7.15;;;;;;;19.98;67.85;100791.62;146707;611;46020;-81
2021/05/31 02:33:59;;;;;;;10.60;7.00;;;;;;;20.01;67.95;100790.56;146706;574;46016;-85
2021/05/31 02:36:29;;;;;;;8.05;7.15;;;;;;;19.94;67.80;100790.97;146708;630;46020;-82
2021/05/31 02:39:00;;;;;;;10.05;7.60;;;;;;;19.90;67.73;100788.59;146706;595;46010;-84
2021/05/31 02:41:30;;;;;;;8.80;6.80;;;;;;;19.91;67.75;100790.31;146710;577;46020;-83
2021/05/31 02:44:01;;;;;;;9.60;6.68;;;;;;;19.95;67.57;100802.47;146704;600;46016;-85
2021/05/31 02:46:31;;;;;;;8.27;6.80;;;;;;;19.98;67.30;100799.59;146707;586;46021;-73
2021/05/31 02:49:03;;;;;;;11.07;6.95;;;;;;;19.94;67.41;100800.78;146706;580;46010;-76
2021/05/31 02:51:34;;;;;;;9.77;7.43;;;;;;;19.92;67.65;100802.69;146704;590;46020;-80
2021/05/31 02:54:06;;;;;;;10.95;6.70;;;;;;;19.99;67.94;100790.66;146701;616;46017;-78
2021/05/31 02:56:37;;;;;;;10.00;7.45;;;;;;;19.98;68.16;100791.62;146705;579;46020;-74
2021/05/31 02:59:07;;;;;;;14.98;7.70;;;;;;;19.93;68.39;100786.59;146706;606;46014;-71
2021/05/31 03:01:38;;;;;;;11.45;7.97;;;;;;;19.88;68.31;100780.72;146709;594;46021;-78
2021/05/31 03:04:08;;;;;;;12.20;8.48;;;;;;;19.88;68.51;100785.19;146702;564;46016;-79
2021/05/31 03:06:39;;;;;;;14.10;7.57;;;;;;;19.91;68.28;100779.66;146710;604;46020;-78
2021/05/31 03:09:09;;;;;;;8.00;7.12;;;;;;;19.91;68.22;100779.66;146703;566;46017;-79
2021/05/31 03:11:40;;;;;;;8.65;7.10;;;;;;;19.87;68.28;100772.81;146707;613;47008;-79
2021/05/31 03:14:10;;;;;;;10.10;6.07;;;;;;;19.85;68.17;100770.28;146702;569;46016;-78
2021/05/31 03:16:41;;;;;;;12.75;5.82;;;;;;;19.85;68.14;100778.25;146700;601;46021;-79
2021/05/31 03:19:12;;;;;;;9.07;5.80;;;;;;;19.89;68.02;100778.94;146703;652;46010;-78
2021/05/31 03:21:42;;;;;;;8.20;5.87;;;;;;;19.89;68.07;100792.25;146708;606;47008;-85
2021/05/31 03:24:13;;;;;;;8.32;4.90;;;;;;;19.91;67.68;100788.50;146708;621;46014;-86
2021/05/31 03:26:44;;;;;;;5.57;4.82;;;;;;;19.93;67.29;100786.59;146709;565;46008;-83
2021/05/31 03:29:14;;;;;;;6.25;5.20;;;;;;;19.94;67.21;100792.78;146709;569;46010;-83
2021/05/31 03:31:45;;;;;;;6.70;4.57;;;;;;;19.95;66.92;100784.69;146707;605;46021;-77
2021/05/31 03:34:15;;;;;;;7.43;5.07;;;;;;;19.92;66.90;100794.69;146706;703;46014;-78
2021/05/31 03:36:46;;;;;;;5.90;5.03;;;;;;;19.90;66.90;100796.59;146706;623;45049;-82
2021/05/31 03:39:16;;;;;;;6.37;5.30;;;;;;;19.92;66.69;100802.69;146709;613;46010;-84
2021/05/31 03:41:47;;;;;;;6.32;5.25;;;;;;;19.93;66.71;100805.25;146707;592;45020;-75
2021/05/31 03:44:18;;;;;;;8.18;5.20;;;;;;;19.96;66.61;100801.53;146706;596;46014;-75
2021/05/31 03:46:48;;;;;;;10.43;5.43;;;;;;;19.98;66.12;100807.59;146709;662;46021;-76
2021/05/31 03:49:19;;;;;;;6.10;4.87;;;;;;;20.00;66.06;100816.37;146703;626;47010;-86
2021/05/31 03:51:49;;;;;;;6.40;5.00;;;;;;;20.02;65.89;100818.94;146710;606;46008;-87
2021/05/31 03:54:20;;;;;;;9.93;5.28;;;;;;;20.02;66.05;100816.25;146706;592;46010;-81
2021/05/31 03:56:50;;;;;;;8.68;4.85;;;;;;;20.04;65.76;100820.53;146709;569;46020;-82
2021/05/31 03:59:21;;;;;;;7.90;5.60;;;;;;;20.07;65.78;100812.34;146707;577;47010;-81
2021/05/31 04:01:52;;;;;;;11.38;5.90;;;;;;;20.09;65.57;100810.44;146710;572;46020;-83
2021/05/31 04:04:23;;;;;;;6.72;4.70;;;;;;;20.12;65.00;100810.22;146707;603;46014;-82
2021/05/31 04:12:30;;;;;;;8.15;5.32;;;;;;;20.07;65.46;100817.66;146709;580;47008;-78
2021/05/31 04:15:03;;;;;;;9.23;6.22;;;;;;;20.04;65.60;100817.88;146701;612;46010;-85
2021/05/31 04:17:33;;;;;;;13.68;5.82;;;;;;;20.05;65.60;100808.94;146709;596;46008;-82
2021/05/31 04:20:05;;;;;;;8.10;5.95;;;;;;;20.01;65.79;100812.75;146709;614;46014;-82
2021/05/31 04:22:35;;;;;;;;;;;;;;;20.06;65.95;100807.94;146712;979;47008;-83
2021/05/31 04:25:07;;;;;;;7.50;5.97;;;;;;;20.04;66.06;100806.34;146712;593;46016;-88
2021/05/31 04:27:37;;;;;;;9.18;5.78;;;;;;;20.10;65.85;100811.28;146709;566;46020;-88
2021/05/31 04:30:11;;;;;;;8.77;5.57;;;;;;;20.08;65.76;100808.72;146706;640;46018;-81
2021/05/31 04:32:42;;;;;;;7.78;5.75;;;;;;;20.09;65.66;100812.22;146705;601;47010;-84
2021/05/31 04:35:12;;;;;;;8.65;5.60;;;;;;;20.11;65.71;100808.50;146709;610;46014;-82
2021/05/31 04:37:43;;;;;;;11.40;5.93;;;;;;;20.16;65.75;100807.34;146713;629;45048;-84
2021/05/31 04:40:14;;;;;;;13.52;6.07;;;;;;;20.24;65.69;100810.34;146703;589;46016;-84
2021/05/31 04:42:47;;;;;;;12.70;5.97;;;;;;;20.43;65.11;100802.81;146713;581;45022;-83
2021/05/31 04:45:18;;;;;;;7.50;5.90;;;;;;;20.59;64.53;100809.78;146705;589;46012;-77
2021/05/31 04:47:49;;;;;;;9.93;6.45;;;;;;;20.56;64.65;100812.66;146705;570;46020;-77
2021/05/31 04:50:19;;;;;;;14.95;6.43;;;;;;;20.50;64.92;100813.06;146705;569;46016;-76
2021/05/31 04:52:50;;;;;;;8.73;5.82;;;;;;;20.52;64.98;100813.84;146703;581;47021;-77
2021/05/31 04:55:21;;;;;;;8.18;5.75;;;;;;;20.54;64.03;100819.91;146706;627;46014;-78
2021/05/31 04:57:52;;;;;;;8.85;6.18;;;;;;;20.51;64.20;100817.44;146698;592;46020;-76
2021/05/31 05:00:23;;;;;;;13.35;6.18;;;;;;;20.53;64.43;100812.84;146703;572;46014;-76
2021/05/31 05:02:54;;;;;;;8.38;6.18;;;;;;;20.55;64.62;100824.28;146706;570;46020;-81
2021/05/31 05:05:25;;;;;;;10.80;6.70;;;;;;;20.57;64.61;100825.88;146706;585;46014;-82
2021/05/31 05:07:56;;;;;;;11.35;7.78;;;;;;;20.62;64.90;100823.72;146708;657;46011;-81
2021/05/31 05:10:26;;;;;;;12.23;7.93;;;;;;;20.73;64.73;100823.03;146704;652;46016;-78
2021/05/31 05:12:57;;;;;;;11.50;7.25;;;;;;;20.87;64.78;100824.78;146704;569;45050;-81
2021/05/31 05:15:28;;;;;;;14.37;7.43;;;;;;;21.02;64.63;100825.47;146700;587;46016;-82
2021/05/31 05:17:59;;;;;;;13.67;7.77;;;;;;;21.20;64.75;100831.34;146705;565;46020;-78
2021/05/31 05:20:32;;;;;;;12.55;6.90;;;;;;;21.30;64.71;100829.72;146699;650;47012;-80
2021/05/31 05:23:03;;;;;;;19.92;7.07;;;;;;;21.42;64.23;100832.47;146699;569;46021;-78
2021/05/31 05:25:34;;;;;;;8.38;5.65;;;;;;;21.45;61.40;100833.13;146701;632;47018;-79
2021/05/31 05:28:04;;;;;;;6.85;3.87;;;;;;;21.43;61.59;100834.19;146706;602;46020;-80
2021/05/31 05:30:35;;;;;;;11.48;4.62;;;;;;;21.41;61.47;100831.62;146698;628;46016;-82
2021/05/31 05:33:05;;;;;;;6.32;4.30;;;;;;;21.18;61.27;100789.72;146707;564;46020;-82
2021/05/31 05:50:06;;;;;;;9.90;4.50;;;;;;;21.61;60.28;100829.34;146702;566;46008;-71
2021/05/31 05:52:37;;;;;;;;;;;;;;;21.56;58.72;100832.38;146709;979;46017;-73
2021/05/31 05:55:09;;;;;;;8.27;4.85;;;;;;;21.58;57.47;100827.78;146713;678;46010;-73
2021/05/31 05:57:42;;;;;;;9.68;4.72;;;;;;;21.58;57.09;100833.13;146705;566;46012;-72
2021/05/31 06:00:21;;;;;;;8.85;4.20;;;;;;;21.75;58.47;100834.56;146705;624;46021;-72
2021/05/31 06:02:51;;;;;;;6.10;3.20;;;;;;;21.96;58.79;100840.13;146707;586;46014;-71
2021/05/31 06:05:22;;;;;;;3.30;3.00;;;;;;;22.18;58.38;100832.34;146710;581;46010;-71
2021/05/31 06:07:53;;;;;;;7.22;3.15;;;;;;;22.28;57.69;100836.00;146705;659;46018;-71
2021/05/31 06:10:24;;;;;;;4.30;3.45;;;;;;;22.40;57.40;100828.94;146709;644;46020;-73
2021/05/31 06:12:54;;;;;;;3.22;2.30;;;;;;;22.68;56.80;100824.13;146705;643;46012;-85
2021/05/31 06:15:24;;;;;;;6.37;3.22;;;;;;;22.82;57.27;100822.06;146701;584;46021;-79
2021/05/31 06:17:55;;;;;;;5.82;3.60;;;;;;;23.03;56.94;100816.00;146700;579;46016;-79
2021/05/31 06:20:26;;;;;;;5.37;3.62;;;;;;;23.17;56.32;100827.47;146707;585;46020;-79
2021/05/31 06:22:56;;;;;;;9.98;3.35;;;;;;;23.12;55.99;100819.78;146701;580;46014;-80
2021/05/31 06:25:27;;;;;;;8.05;3.15;;;;;;;22.98;55.18;100812.87;146707;583;46020;-80
2021/05/31 06:27:59;;;;;;;3.83;2.83;;;;;;;22.93;55.28;100815.03;146705;828;46016;-79
2021/05/31 06:30:30;;;;;;;5.62;3.00;;;;;;;22.94;55.32;100811.41;146709;570;46012;-74
2021/05/31 06:33:01;;;;;;;4.30;2.60;;;;;;;23.03;54.70;100805.28;146703;602;46016;-78
2021/05/31 06:35:31;;;;;;;4.93;3.67;;;;;;;22.88;54.98;100819.91;146707;608;46010;-74
2021/05/31 06:38:03;;;;;;;2.65;2.45;;;;;;;22.75;54.37;100823.53;146707;564;47012;-73
2021/05/31 06:40:34;;;;;;;3.03;2.42;;;;;;;22.67;54.44;100820.59;146699;627;46020;-74
2021/05/31 06:43:04;;;;;;;7.15;2.65;;;;;;;22.62;54.50;100820.09;146703;674;46016;-75
2021/05/31 06:45:35;;;;;;;4.62;2.50;;;;;;;22.76;54.52;100814.53;146704;586;46021;-74
2021/05/31 06:48:10;;;;;;;3.87;2.53;;;;;;;22.85;53.75;100801.41;146702;613;46016;-73
2021/05/31 06:50:40;;;;;;;5.50;2.70;;;;;;;22.83;53.31;100798.84;146705;601;46021;-73
2021/05/31 06:53:11;;;;;;;5.37;2.92;;;;;;;22.84;53.31;100795.22;146701;631;46016;-74
2021/05/31 06:55:43;;;;;;;5.32;2.33;;;;;;;22.94;53.54;100795.34;146710;590;46010;-74
2021/05/31 06:58:14;;;;;;;4.85;2.42;;;;;;;22.98;52.92;100789.59;146707;565;46015;-74
2021/05/31 07:00:48;;;;;;;2.92;2.62;;;;;;;22.98;52.93;100796.78;146707;610;46021;-73
2021/05/31 07:03:19;;;;;;;3.78;2.60;;;;;;;22.98;52.24;100797.62;146700;570;46012;-73
2021/05/31 07:05:49;;;;;;;5.55;2.87;;;;;;;22.97;52.62;100792.41;146699;586;46021;-73
2021/05/31 07:08:22;;;;;;;2.83;2.62;;;;;;;23.12;52.34;100787.66;146701;634;47905;-73
2021/05/31 07:10:54;;;;;;;3.10;2.80;;;;;;;23.25;52.09;100784.88;146706;581;46020;-74
2021/05/31 07:13:24;;;;;;;;;;;;;;;23.31;51.02;100787.91;146709;979;46016;-74
2021/05/31 07:15:58;;;;;;;14.32;4.53;;;;;;;23.33;51.48;100782.44;146716;605;46020;-73
2021/05/31 07:18:28;;;;;;;30.12;5.03;;;;;;;23.35;51.15;100776.94;146703;571;46014;-73
2021/05/31 07:21:01;;;;;;;10.02;3.95;;;;;;;23.46;51.83;100787.66;146704;611;47008;-74
2021/05/31 07:23:32;;;;;;;4.18;2.47;;;;;;;23.64;51.49;100783.44;146702;624;47019;-73
2021/05/31 07:26:04;;;;;;;2.53;2.33;;;;;;;23.87;49.83;100786.06;146703;575;46020;-73
2021/05/31 07:28:35;;;;;;;5.75;2.90;;;;;;;23.99;50.32;100793.13;146703;584;47903;-74
2021/05/31 07:31:05;;;;;;;4.00;2.37;;;;;;;24.15;49.84;100791.81;146700;572;46020;-73
2021/05/31 07:33:36;;;;;;;8.25;3.17;;;;;;;24.35;49.78;100786.63;146704;569;46016;-73
2021/05/31 07:36:07;;;;;;;4.43;2.87;;;;;;;24.61;48.93;100782.56;146706;595;46021;-72
2021/05/31 07:38:37;;;;;;;5.10;2.62;;;;;;;24.64;48.10;100776.09;146704;616;46016;-73
2021/05/31 07:41:08;;;;;;;3.10;2.50;;;;;;;24.62;47.89;100775.38;146710;597;47022;-75
2021/05/31 07:43:39;;;;;;;3.03;2.47;;;;;;;24.80;48.46;100771.06;146709;633;46014;-74
2021/05/31 07:46:11;;;;;;;3.80;2.50;;;;;;;24.96;47.24;100775.09;146708;579;46007;-74
2021/05/31 07:48:43;;;;;;;2.70;2.30;;;;;;;25.21;47.61;100762.19;146702;576;47010;-73
2021/05/31 07:51:18;;;;;;;3.75;2.40;;;;;;;25.31;46.02;100763.06;146706;643;46021;-72
2021/05/31 07:53:55;;;;;;;3.78;2.60;;;;;;;25.27;46.25;100740.97;146700;569;46010;-73
2021/05/31 07:56:27;;;;;;;4.03;2.53;;;;;;;25.38;45.77;100769.59;146703;585;46008;-72
2021/05/31 07:58:58;;;;;;;3.62;2.50;;;;;;;25.35;45.80;100764.50;146708;646;46011;-73
2021/05/31 08:01:28;;;;;;;3.50;2.80;;;;;;;25.44;45.18;100770.91;146706;709;46020;-73
2021/05/31 08:03:59;;;;;;;3.28;2.55;;;;;;;25.55;44.96;100764.53;146702;570;46016;-73
2021/05/31 08:06:31;;;;;;;3.07;2.73;;;;;;;25.59;45.21;100760.59;146704;672;46020;-75
2021/05/31 08:09:03;;;;;;;2.65;2.45;;;;;;;25.76;44.57;100776.03;146705;906;47010;-74
2021/05/31 08:11:34;;;;;;;2.70;2.03;;;;;;;25.90;44.28;100773.91;146706;597;46020;-74
2021/05/31 08:14:05;;;;;;;2.60;2.40;;;;;;;26.01;43.62;100774.62;146699;571;46016;-75
2021/05/31 08:16:36;;;;;;;6.78;2.30;;;;;;;26.15;42.91;100776.06;146709;582;46020;-74
2021/05/31 08:19:07;;;;;;;7.03;2.67;;;;;;;26.28;42.17;100772.22;146705;593;46016;-72
2021/05/31 08:21:37;;;;;;;3.60;2.30;;;;;;;26.25;42.71;100777.91;146699;951;46020;-74
2021/05/31 08:24:08;;;;;;;2.78;2.40;;;;;;;26.34;41.80;100771.63;146704;982;46016;-74
2021/05/31 08:26:42;;;;;;;4.17;2.70;;;;;;;26.29;41.39;100764.00;146710;663;47006;-75
2021/05/31 08:29:12;;;;;;;2.60;2.40;;;;;;;26.46;41.38;100762.44;146704;586;46016;-72
2021/05/31 08:31:43;;;;;;;5.22;2.37;;;;;;;26.58;40.50;100757.69;146707;569;46020;-73
2021/05/31 08:34:14;;;;;;;3.47;2.70;;;;;;;26.68;40.48;100754.97;146703;573;47010;-73
2021/05/31 08:36:45;;;;;;;3.90;2.85;;;;;;;26.59;40.42;100750.50;146708;575;46008;-73
2021/05/31 08:39:15;;;;;;;2.70;2.40;;;;;;;26.59;39.62;100753.19;146703;572;46016;-74
2021/05/31 08:41:46;;;;;;;9.02;2.50;;;;;;;26.71;39.53;100741.28;146706;694;46008;-73
2021/05/31 08:44:17;;;;;;;4.03;2.50;;;;;;;26.60;39.21;100736.88;146704;565;46017;-73
2021/05/31 08:46:48;;;;;;;2.83;2.63;;;;;;;26.61;38.79;100740.41;146700;580;46008;-73
2021/05/31 08:49:24;;;;;;;3.50;2.50;;;;;;;26.58;38.84;100740.72;146701;679;46016;-74
2021/05/31 08:51:55;;;;;;;3.87;2.35;;;;;;;26.46;39.29;100740.03;146706;596;46021;-73
2021/05/31 08:54:25;;;;;;;3.10;2.60;;;;;;;26.49;40.09;100742.44;146704;594;46014;-74
2021/05/31 08:56:56;;;;;;;4.22;2.70;;;;;;;26.64;39.52;100732.03;146708;716;46021;-74
2021/05/31 08:59:26;;;;;;;5.25;2.70;;;;;;;26.76;39.14;100724.66;146706;576;46014;-74
2021/05/31 09:01:57;;;;;;;2.35;2.15;;;;;;;26.67;38.29;100718.31;146709;596;47008;-73
2021/05/31 09:04:29;;;;;;;3.70;2.60;;;;;;;26.77;38.76;100724.50;146702;894;46017;-73
2021/05/31 09:07:01;;;;;;;2.35;2.15;;;;;;;26.65;37.35;100721.13;146704;625;46020;-75
2021/05/31 09:09:39;;;;;;;3.72;2.22;;;;;;;26.80;38.85;100724.19;146701;595;47018;-73
2021/05/31 09:12:12;;;;;;;3.08;2.70;;;;;;;26.97;37.77;100713.62;146587;599;64314;-72
2021/05/31 09:14:43;;;;;;;3.75;2.70;;;;;;;27.02;37.20;100712.22;146704;587;46016;-74
2021/05/31 09:17:28;;;;;;;3.42;2.47;;;;;;;27.19;37.07;100710.53;146711;565;46020;-73
2021/05/31 09:19:59;;;;;;;3.55;2.37;;;;;;;27.20;36.59;100716.75;146701;586;47018;-73
2021/05/31 09:22:29;;;;;;;2.90;2.30;;;;;;;27.26;36.98;100701.84;146711;612;46018;-74
2021/05/31 09:25:05;;;;;;;2.25;2.05;;;;;;;27.28;37.23;100707.94;146705;577;47018;-74
2021/05/31 09:27:39;;;;;;;3.62;2.40;;;;;;;27.35;36.29;100709.00;146706;583;46021;-74
2021/05/31 09:30:10;;;;;;;4.83;2.57;;;;;;;27.36;36.91;100721.53;146701;581;46012;-76
2021/05/31 09:32:52;;;;;;;3.80;2.12;;;;;;;27.37;36.64;100704.34;146706;627;46020;-74
2021/05/31 09:35:24;;;;;;;3.03;2.40;;;;;;;27.13;34.95;100703.06;146705;569;46016;-74
2021/05/31 09:37:59;;;;;;;4.50;2.35;;;;;;;26.93;35.99;100698.75;146698;607;46020;-74
2021/05/31 09:40:30;;;;;;;5.35;2.37;;;;;;;26.79;36.42;100684.81;146704;648;46016;-74
2021/05/31 09:43:07;;;;;;;4.87;2.45;;;;;;;26.81;36.38;100688.19;146707;594;46021;-74
2021/05/31 09:45:40;;;;;;;5.53;2.28;;;;;;;26.90;36.12;100682.91;146704;705;47012;-72
2021/05/31 09:48:11;;;;;;;3.65;2.05;;;;;;;27.06;36.12;100680.41;146707;598;46020;-71
2021/05/31 09:50:42;;;;;;;3.00;2.27;;;;;;;27.25;35.59;100681.28;146709;591;45906;-73
2021/05/31 09:53:14;;;;;;;4.32;2.22;;;;;;;27.18;35.18;100678.34;146706;597;47008;-72
2021/05/31 09:55:49;;;;;;;6.28;2.15;;;;;;;27.25;35.15;100679.44;146704;592;46016;-75
2021/05/31 09:58:19;;;;;;;2.17;1.98;;;;;;;27.30;35.20;100677.13;146705;569;46021;-74
2021/05/31 10:00:59;;;;;;;2.33;1.90;;;;;;;27.44;34.80;100683.03;146703;582;46905;-75
2021/05/31 10:03:43;;;;;;;2.83;1.98;;;;;;;27.56;35.08;100681.78;146700;600;46021;-74
2021/05/31 10:06:22;;;;;;;4.00;1.87;;;;;;;27.74;34.69;100672.84;146704;634;46016;-74
2021/05/31 10:08:53;;;;;;;3.37;1.62;;;;;;;27.77;33.60;100653.63;146705;711;46020;-74
2021/05/31 10:11:24;;;;;;;4.47;1.75;;;;;;;27.84;34.01;100690.63;146709;583;46013;-74
2021/05/31 10:13:55;;;;;;;4.70;1.92;;;;;;;27.94;33.72;100668.94;146708;588;46032;-75
2021/05/31 10:16:26;;;;;;;3.37;1.98;;;;;;;27.68;33.42;100655.41;146703;574;46018;-77
2021/05/31 10:18:58;;;;;;;6.43;2.40;;;;;;;27.75;33.50;100680.78;146707;596;46021;-78
2021/05/31 10:21:29;;;;;;;;;;;;;;;27.74;34.04;100668.28;146710;980;46012;-77
2021/05/31 10:24:00;;;;;;;3.05;2.10;;;;;;;27.82;33.49;100668.34;146715;588;46018;-78
2021/05/31 10:26:35;;;;;;;3.67;1.80;;;;;;;27.68;33.02;100679.69;146704;720;46014;-77
2021/05/31 10:29:06;;;;;;;2.87;2.05;;;;;;;27.59;33.72;100667.16;146704;673;46008;-78
2021/05/31 10:31:45;;;;;;;;;;;;;;;27.47;33.95;100674.63;146710;973;46016;-78
2021/05/31 10:34:22;;;;;;;3.72;2.10;;;;;;;27.11;33.81;100650.34;146712;587;46021;-80
2021/05/31 10:36:53;;;;;;;3.17;1.98;;;;;;;27.17;34.28;100676.66;146705;569;46012;-78
2021/05/31 10:39:28;;;;;;;2.53;1.90;;;;;;;27.09;35.04;100669.34;146706;636;46020;-78
2021/05/31 10:42:07;;;;;;;5.03;2.00;;;;;;;27.14;35.06;100658.94;146702;612;46013;-77
2021/05/31 10:44:43;;;;;;;4.00;1.80;;;;;;;27.47;34.83;100651.19;146708;563;46020;-77
2021/05/31 10:47:18;;;;;;;3.53;2.00;;;;;;;27.65;34.61;100647.63;146703;573;46014;-77
2021/05/31 10:49:56;;;;;;;2.15;1.95;;;;;;;27.79;33.37;100644.41;146711;580;46010;-76
2021/05/31 10:52:27;;;;;;;2.65;1.85;;;;;;;27.88;33.63;100645.28;146709;677;46014;-77
2021/05/31 10:55:08;;;;;;;1.75;1.65;;;;;;;28.00;33.18;100638.66;146701;582;46020;-78
2021/05/31 10:57:38;;;;;;;6.22;1.90;;;;;;;28.12;32.37;100630.31;146701;576;47012;-76
2021/05/31 11:00:30;;;;;;;58.70;3.42;;;;;;;28.24;32.38;100625.47;146710;575;46010;-76
2021/05/31 11:03:12;;;;;;;2.15;1.50;;;;;;;28.35;31.83;100617.06;146703;587;46016;-77
2021/05/31 11:05:42;;;;;;;3.78;1.70;;;;;;;28.40;30.93;100624.72;146705;564;46021;-77
2021/05/31 11:08:25;;;;;;;2.00;1.67;;;;;;;28.49;31.31;100619.19;146702;566;47020;-78
2021/05/31 11:11:03;;;;;;;3.55;1.50;;;;;;;28.51;30.56;100610.91;146707;594;46020;-78
2021/05/31 11:13:34;;;;;;;2.83;1.80;;;;;;;28.60;30.03;100619.91;146703;563;46017;-77
2021/05/31 11:16:09;;;;;;;2.45;1.70;;;;;;;28.75;29.28;100612.91;146708;598;46010;-78
2021/05/31 11:18:45;;;;;;;1.75;1.58;;;;;;;28.78;30.39;100612.56;146703;615;46017;-77
2021/05/31 11:22:29;;;;;;;2.22;1.40;;;;;;;28.93;29.37;100611.94;145350;65;1487181;-75
2021/05/31 11:25:10;;;;;;;4.05;1.73;;;;;;;28.88;29.88;100609.72;146707;581;46016;-77
2021/05/31 11:27:42;;;;;;;1.60;1.50;;;;;;;28.83;29.28;100609.38;146706;61;58760;-77
2021/05/31 11:30:22;;;;;;;1.90;1.70;;;;;;;28.83;29.96;100610.22;146709;575;46011;-78
2021/05/31 11:32:53;;;;;;;6.15;1.60;;;;;;;28.86;30.38;100607.19;146714;566;46020;-76
2021/05/31 11:35:24;;;;;;;1.77;1.58;;;;;;;28.91;29.73;100616.63;146708;566;46016;-77
2021/05/31 11:37:55;;;;;;;2.63;2.43;;;;;;;28.88;29.05;100612.41;146712;564;46021;-77
2021/05/31 11:40:30;;;;;;;1.90;1.80;;;;;;;28.80;30.00;100615.94;146710;612;46010;-77
2021/05/31 11:43:02;;;;;;;3.83;1.92;;;;;;;28.84;30.08;100605.66;146713;600;46020;-76
2021/05/31 11:45:36;;;;;;;3.33;1.40;;;;;;;28.93;29.76;100614.62;146709;629;46018;-77
2021/05/31 11:48:15;;;;;;;5.32;2.10;;;;;;;28.78;32.44;100626.06;146714;591;46020;-74
2021/05/31 11:50:48;;;;;;;4.07;3.22;;;;;;;28.18;35.46;100627.78;146710;605;46014;-76
2021/05/31 11:53:18;;;;;;;7.35;3.47;;;;;;;27.51;36.75;100625.62;146713;597;46008;-77
2021/05/31 11:55:48;;;;;;;3.75;2.78;;;;;;;27.21;37.93;100613.37;146710;606;46010;-77
2021/05/31 11:58:25;;;;;;;2.80;2.58;;;;;;;26.66;38.71;100608.91;146713;573;46020;-79
2021/05/31 12:01:00;;;;;;;5.47;2.80;;;;;;;26.32;39.64;100623.78;146708;622;46907;-80
2021/05/31 12:03:30;;;;;;;3.97;3.00;;;;;;;25.96;40.93;100623.59;146713;565;47008;-77
2021/05/31 12:06:10;;;;;;;6.30;2.80;;;;;;;25.83;41.05;100626.59;146708;577;47907;-77
2021/05/31 12:08:40;;;;;;;3.85;3.05;;;;;;;25.72;40.89;100618.69;146714;564;46021;-78
2021/05/31 12:11:21;;;;;;;4.32;3.05;;;;;;;25.47;42.61;100620.97;146707;695;46016;-77
2021/05/31 12:14:00;;;;;;;3.97;3.12;;;;;;;25.37;42.27;100617.44;146714;566;45020;-78